• Join FlightAware (Why Join?)
  • Login
  • US Flag 
02:02AM EDT


 

Airport Tracker/Info


-or-


 

Live Flight TrackerFlight Track Log ✈ SWA1903 ✈ 24-May-2013 ✈ KPHX - KSLC

Flight Track Log - Related Links

Times and Time Zones

All times are in EDT time to prevent confusion due to time zone crossing. See the SWA1903 flight status page for this flight to view local times or setup timezone preferences in your user account.

Time Position Orientation Groundspeed Altitude Reporting Facility
EDT Latitude Longitude Course Direction KTS MPH feet Rate Location/Type
03:33PM 33.4333 -112.0333 270° West 181 208 1,900  Level Phoenix TRACON
03:34PM 33.4333 -112.1000 270° West 208 239 3,600 2,280 Climbing Phoenix TRACON
03:35PM 33.4500 -112.1667 287° West 242 278 6,300 2,400 Climbing Phoenix TRACON
03:37PM 33.5339 -112.1708 358° North 303 349 9,000 2,820 Climbing Albuquerque Center
03:38PM 33.6239 -112.1517 10° North 328 377 12,800 3,300 Climbing Albuquerque Center
03:39PM 33.7167 -112.1611 355° North 333 383 15,900 2,520 Climbing Albuquerque Center
03:40PM 33.8014 -112.1000 31° Northeast 384 442 18,100 2,760 Climbing Albuquerque Center
03:41PM 33.8858 -111.9719 52° Northeast 407 468 21,700 2,820 Climbing Albuquerque Center
03:42PM 33.9783 -111.8692 43° Northeast 428 493 24,000 2,280 Climbing Albuquerque Center
03:43PM 34.0978 -111.8811 355° North 434 499 26,400 2,160 Climbing Albuquerque Center
03:44PM 34.2197 -111.8983 353° North 440 506 28,500 1,860 Climbing Albuquerque Center
03:45PM 34.3439 -111.9161 353° North 451 519 30,300 1,800 Climbing Albuquerque Center
03:46PM 34.4700 -111.9342 353° North 455 524 32,300 1,740 Climbing Albuquerque Center
03:47PM 34.5975 -111.9519 353° North 458 527 34,000 780 Climbing Albuquerque Center
03:48PM 34.7228 -111.9697 353° North 456 525 34,000  Level Albuquerque Center
03:49PM 34.8719 -111.9911 353° North 455 524 34,000  Level Albuquerque Center
03:50PM 34.9958 -112.0086 353° North 452 520 34,000  Level Albuquerque Center
03:51PM 35.1217 -112.0256 354° North 457 526 34,000 420 Level Albuquerque Center
03:52PM 35.2461 -112.0436 353° North 455 524 34,900 960 Climbing Albuquerque Center
03:53PM 35.3733 -112.0622 353° North 462 532 36,000 480 Climbing Albuquerque Center
03:54PM 35.5250 -112.0836 353° North 462 532 36,000  Level Albuquerque Center
03:55PM 35.6486 -112.1003 354° North 456 525 36,000  Level Albuquerque Center
03:56PM 35.7731 -112.1186 353° North 454 522 36,000  Level Albuquerque Center
03:57PM 35.8969 -112.1361 353° North 452 520 36,000  Level Albuquerque Center
03:58PM 36.0208 -112.1522 354° North 452 520 36,000  Level Albuquerque Center
03:59PM 36.1703 -112.1658 356° North 453 521 36,000  Level Albuquerque Center
04:00PM 36.2239 -112.1697 357° North 448 516 36,000  Level Salt Lake Center
04:01PM 36.3228 -112.1778 356° North 445 512 36,000  Level Los Angeles Center
04:02PM 36.4483 -112.1892 356° North 448 516 36,000  Level Los Angeles Center
04:03PM 36.5728 -112.2014 355° North 449 517 36,000 -360 Level Los Angeles Center
04:04PM 36.6986 -112.2114 356° North 452 520 35,300 -780 Descending Los Angeles Center
04:05PM 36.8247 -112.2233 356° North 453 521 34,400 -660 Descending Los Angeles Center
04:06PM 36.9797 -112.2369 356° North 464 534 34,000 -240 Descending Los Angeles Center
04:07PM 37.1078 -112.2489 356° North 465 535 34,000  Level Los Angeles Center
04:08PM 37.2358 -112.2611 356° North 464 534 34,000  Level Los Angeles Center
04:09PM 37.3633 -112.2733 356° North 463 533 34,000  Level Los Angeles Center
04:09PM 37.4147 -112.2786 355° North 465 535 34,000  Level Salt Lake Center
04:10PM 37.5431 -112.2900 356° North 466 536 34,000  Level Salt Lake Center
04:11PM 37.6736 -112.3025 356° North 471 542 34,000  Level Salt Lake Center
04:12PM 37.8044 -112.2881 North 476 548 34,000  Level Salt Lake Center
04:13PM 37.9603 -112.2683 North 473 544 34,000  Level Salt Lake Center
04:14PM 38.0889 -112.2506 North 469 540 34,000  Level Salt Lake Center
04:15PM 38.2172 -112.2336 North 467 537 34,000  Level Salt Lake Center
04:16PM 38.3456 -112.2158 North 465 535 34,000 -540 Level Salt Lake Center
04:17PM 38.4747 -112.1972 North 467 537 33,000 -1,020 Descending Salt Lake Center
04:18PM 38.6017 -112.1792 North 463 533 32,000 -540 Descending Salt Lake Center
04:19PM 38.7519 -112.1572 North 455 524 32,000  Level Salt Lake Center
04:21PM 38.8792 -112.1408 North 458 527 32,000 -1,020 Level Salt Lake Center
04:22PM 39.0036 -112.1236 North 453 521 30,000 -1,800 Descending Salt Lake Center
04:23PM 39.1267 -112.1056 North 447 514 28,300 -1,860 Descending Salt Lake Center
04:24PM 39.2550 -112.0886 North 425 489 26,200 -1,980 Descending Salt Lake Center
04:25PM 39.3683 -112.0711 North 413 475 24,300 -1,800 Descending Salt Lake Center
04:26PM 39.4786 -112.0558 North 404 465 22,600 -1,800 Descending Salt Lake Center
04:27PM 39.5861 -112.0414 North 394 453 20,700 -1,800 Descending Salt Lake Center
04:28PM 39.6903 -112.0256 North 384 442 19,000 -1,800 Descending Salt Lake Center
04:29PM 39.8106 -112.0094 North 368 423 17,100 -1,740 Descending Salt Lake Center
04:29PM 39.8653 -112.0100 360° North 362 417 16,100 -1,800 Descending Salt Lake Center
04:30PM 39.9072 -111.9922 18° North 354 407 15,300 -1,380 Descending Salt Lake Center
04:30PM 39.9467 -111.9967 355° North 347 399 15,000 -300 Descending Salt Lake Center
04:31PM 40.0006 -111.9808 13° North 336 387 15,000 -420 Level Salt Lake Center
04:31PM 40.0411 -111.9847 356° North 334 384 14,600 -1,020 Descending Salt Lake Center
04:32PM 40.0933 -111.9672 14° North 335 386 14,000 -1,200 Descending Salt Lake Center
04:32PM 40.1350 -111.9697 357° North 333 383 13,400 -1,020 Descending Salt Lake Center
04:33PM 40.1831 -111.9558 12° North 327 376 13,000 -840 Descending Salt Lake Center
04:33PM 40.2203 -111.9550 North 326 375 12,600 -1,080 Descending Salt Lake Center
04:34PM 40.2719 -111.9417 11° North 322 371 11,900 -1,320 Descending Salt Lake Center
04:34PM 40.3153 -111.9456 356° North 321 369 11,300 -1,320 Descending Salt Lake Center
04:35PM 40.3603 -111.9461 359° North 317 365 10,600 -1,200 Descending Salt Lake Center
04:36PM 40.4628 -111.9586 355° North 309 356 9,300 -1,200 Descending Salt Lake Center
04:36PM 40.4875 -111.9661 347° North 305 351 9,000 -900 Descending Salt Lake Center
04:37PM 40.5408 -111.9678 359° North 279 321 8,400 -900 Descending Salt Lake Center
04:37PM 40.5622 -111.9747 346° North 273 314 8,100 -1,080 Descending Salt Lake Center
04:38PM 40.6139 -111.9764 359° North 264 304 7,300 -1,140 Descending Salt Lake Center
04:39PM 40.6792 -111.9839 355° North 238 274 6,100 -1,080 Descending Salt Lake Center
04:40PM 40.7406 -111.9933 353° North 181 208 5,000 -840 Descending Salt Lake Center
04:41PM 40.7733 -111.9944 359° North 151 174 4,400 -720 Descending Salt Lake Center
04:43PM 40.7833 -111.9667 North  Level FlightAware Approximate